ADDS METAR Data INFO
IDs: Format: Raw Decoded Include TAF

Data at: 1511 UTC 11 Dec 2017

KRYN 111445Z 07012KT 10SM CLR 13/M08 A3025
KRYN 111345Z 12009KT 10SM CLR 14/M08 A3025
KRYN 111245Z 09007KT 10SM CLR 13/M08 A3025
KRYN 110245Z 10010KT 10SM CLR 18/M08 A3023 RMK LAST
KRYN 110145Z 10011KT 10SM CLR 18/M08 A3021
KRYN 110045Z 09009KT 10SM CLR 19/M08 A3020
KRYN 102345Z 08009G15KT 10SM CLR 21/M09 A3019
KRYN 102245Z 10016G22KT 10SM CLR 23/M09 A3018
KRYN 102145Z 08018G21KT 10SM CLR 22/M09 A3018
KRYN 102045Z 10014G23KT 10SM CLR 22/M10 A3020
KRYN 101945Z 11017G22KT 10SM CLR 22/M10 A3024
KRYN 101845Z 12018G23KT 10SM CLR 22/M10 A3027
KRYN 101745Z 10020G30KT 10SM CLR 19/M11 A3028
KRYN 101645Z 11015G26KT 10SM CLR 18/M11 A3028
KRYN 101545Z 10015KT 10SM CLR 17/M11 A3028
KRYN 101445Z 11013KT 10SM CLR 15/M11 A3028
KRYN 101345Z 10014KT 10SM CLR 15/M12 A3027
KRYN 101245Z 09013KT 10SM CLR 15/M12 A3025